Aeroporto :







RITROVATECI SU...

 
LOGIN :

Iscrizione | Disclaimer

   EN    FR    IT 

 









Sommario :    VFR   VFR Marginale   IFR   IFR Intensivo   IFR Molto Intensivo
Visibilità : 
Base nubi : 
>= 8 km
>= 3000ft
5 / 8 km
1000 / 3000 ft
1500m / 5 km
500 / 1000 ft
800 / 1500m
200 / 500 ft
< 800m
< 200 ft
Simboli :   Temporali  Nebbia  Neve Forte  Precipitazioni Forti  Vento > 20 kt






- Altitudine del aeroporto : 71 ft
- Codice IATA : YBC


CYBC - Baie Comeau

ULTIMO METAR :
  • 141300Z AUTO 00000KT 9SM CLR M10/M13 A3038 RMK SLP291

METARs OBSOLETI :
  • 141200Z AUTO 33005KT 9SM FEW110 M11/M14 A3038 RMK SLP291
  • 141100Z AUTO 29006KT 9SM BKN120 M12/M14 A3037 RMK SLP288

TAF TAF CYBC
Valido dal 14 a 08 ore il 14 a 20 ore UTC


140738Z 1408/1420 30005KT P6SM FEW200
FM141300 VRB03KT P6SM FEW020 BKN120
TEMPO 1413/1416 BKN020
FM141700 20008KT P6SM SCT030 BKN100 RMK FCST BASED ON AUTO OBS. NXT FCST BY 141400Z



MetMap, La meteo Aeronautica in un colpo d'occhio ! - Copyright ORBIFLY Dicembre 2007 - Disclaimer

ORBIFLY MET'MAP TEAM :

Programmazione e sviluppo : Alexandra Zaïnal
Concezione e sviluppo : Baudouin d'Aumeries
Co-Programmazione e sviluppo : Marc-Olivier Méhu
Supporto tecnico e logistico : Manuel Goepfert
Aiuto per la traduzione : Arnaldo La Scala

Contatto : metmap@orbifly.com




FONTI E CREDITI :

   NOAA